Iblea — IBFK — position and weather

sailwx.info

Track history (hours):
 
Tides and Currents Weather Stations Pressure Air Temp Water Temp Dewpoint Dewpoint Depression Visibility Wind Speed Wind Dir Waves Ship Positions

Iblea

Last reported at 2017-Jan-20 08:25 UTC. Time now 2017-Jan-24 23:28 UTC.
Position N 35°42' E 014°50'.

Length 176 m; draft 11.1 m.

Type: Ship (hazmat cat A). MMSI: 247087700.

Date/timePositionNaut miles runAvg speedWind from/ knotsBaromVisibWave heightAir tempDewpointWater temp
2017-Jan-20 08:25N 35°42' E 014°50'1112.3
2017-Jan-20 07:33N 35°53' E 014°52'1010.2
2017-Jan-20 06:33N 36°02' E 014°46'1 0.8
2017-Jan-20 05:33N 36°02' E 014°45'0 0.4
2017-Jan-20 04:33N 36°03' E 014°46'0 0.5
2017-Jan-20 03:33N 36°02' E 014°46'0 0.4
2017-Jan-20 02:33N 36°02' E 014°47'0 0.4
2017-Jan-20 01:32N 36°02' E 014°47'0 0.3
2017-Jan-20 00:32N 36°02' E 014°48'0 0.2
2017-Jan-19 23:33N 36°02' E 014°48'0 0.2
2017-Jan-19 22:32N 36°02' E 014°48'0 0.3
2017-Jan-19 21:33N 36°02' E 014°48'0 0.4
2017-Jan-19 20:33N 36°03' E 014°49'2 1.5
2017-Jan-19 19:33N 36°03' E 014°50'2 0.7
2017-Jan-19 16:14N 36°02' E 014°53'3 4.9
2017-Jan-19 15:33N 36°00' E 014°49'1 1.3
2017-Jan-19 14:33N 35°59' E 014°49'3 3.0
2017-Jan-19 13:33N 35°57' E 014°52'6 2.4
2017-Jan-19 11:12N 35°51' E 014°53'0 0.0
2017-Jan-19 10:15N 35°51' E 014°53'0 0.0
2017-Jan-19 09:33N 35°51' E 014°53'0 0.0
2017-Jan-19 08:15N 35°51' E 014°53'0 0.0
2017-Jan-19 07:33N 35°51' E 014°53'0 0.0
2017-Jan-19 06:33N 35°51' E 014°53'0 0.0
2017-Jan-19 05:33N 35°51' E 014°53'0 0.1
2017-Jan-19 04:33N 35°51' E 014°53'0 0.0
2017-Jan-19 03:33N 35°51' E 014°53'0 0.0
2017-Jan-19 02:33N 35°51' E 014°53'0 0.0
2017-Jan-19 01:33N 35°51' E 014°53'0 0.0
2017-Jan-19 00:24N 35°51' E 014°53'0 0.0
2017-Jan-18 23:24N 35°51' E 014°53'0 0.0
2017-Jan-18 22:33N 35°51' E 014°53'0 0.0
2017-Jan-18 21:27N 35°51' E 014°53'0 0.0
2017-Jan-18 20:30N 35°51' E 014°53'0 0.0
2017-Jan-18 18:12N 35°51' E 014°53'0 0.0
2017-Jan-18 16:21N 35°51' E 014°53'0 0.0
2017-Jan-18 15:33N 35°51' E 014°53'0 0.0
2017-Jan-18 14:21N 35°51' E 014°53'0 0.1
2017-Jan-18 13:24N 35°51' E 014°53'0 0.0
2017-Jan-18 12:33N 35°51' E 014°53'0 0.0
2017-Jan-18 11:30N 35°51' E 014°53'0 0.0
2017-Jan-18 10:33N 35°51' E 014°53'0 0.0
2017-Jan-18 09:21N 35°51' E 014°53'0 0.0
2017-Jan-18 08:18N 35°51' E 014°53'0 0.0
2017-Jan-18 07:27N 35°51' E 014°53'0 0.0
2017-Jan-18 06:30N 35°51' E 014°53'0 0.0
2017-Jan-18 05:27N 35°51' E 014°53'0 0.0
2017-Jan-18 04:30N 35°51' E 014°53'0 0.0
2017-Jan-18 03:33N 35°51' E 014°53'0 0.0
2017-Jan-18 02:33N 35°51' E 014°53'0 0.0
2017-Jan-18 01:12N 35°51' E 014°53'0 0.1
2017-Jan-18 00:30N 35°51' E 014°53'0 0.1
2017-Jan-17 23:33N 35°51' E 014°53'0 0.0
2017-Jan-17 22:27N 35°51' E 014°53'0 0.0
2017-Jan-17 15:06N 35°51' E 014°53'0 0.1
2017-Jan-17 14:21N 35°51' E 014°53'0 0.1
2017-Jan-17 13:33N 35°51' E 014°53'0 0.0
2017-Jan-17 11:33N 35°51' E 014°53'0 0.0
2017-Jan-17 10:24N 35°51' E 014°53'0 0.1
2017-Jan-17 09:33N 35°51' E 014°53'0 0.0
2017-Jan-17 08:33N 35°51' E 014°53'0 0.0
2017-Jan-17 07:33N 35°51' E 014°53'0 0.0
2017-Jan-17 06:33N 35°51' E 014°53'0 0.0
2017-Jan-17 05:30N 35°51' E 014°53'0 0.0
2017-Jan-17 04:33N 35°51' E 014°53'0 0.0
2017-Jan-17 03:33N 35°51' E 014°53'0 0.1
2017-Jan-17 02:33N 35°51' E 014°53'9 9.0
2017-Jan-17 01:34N 35°55' E 014°43'7 6.7
2017-Jan-17 00:33N 35°59' E 014°36'2 1.5
2017-Jan-16 23:34N 35°58' E 014°38'4 4.4
2017-Jan-16 22:33N 36°02' E 014°39'2 2.1
2017-Jan-16 21:33N 36°04' E 014°39'2 2.4
2017-Jan-16 20:33N 36°02' E 014°39'2 2.0
2017-Jan-16 19:33N 35°60' E 014°39'2 2.0
2017-Jan-16 18:33N 35°58' E 014°38'8 8.2
2017-Jan-16 17:33N 35°54' E 014°47'7 1.5
2017-Jan-16 12:31N 35°51' E 014°55'0 0.0
2017-Jan-16 11:13N 35°51' E 014°55'0 0.0
2017-Jan-16 08:31N 35°51' E 014°55'0 0.0
2017-Jan-16 07:28N 35°51' E 014°55'0 0.0
2017-Jan-15 23:31N 35°51' E 014°55'0 0.0
2017-Jan-15 21:31N 35°51' E 014°55'0 0.0
2017-Jan-15 20:31N 35°51' E 014°55'0 0.0
2017-Jan-15 19:19N 35°51' E 014°55'0 0.0
2017-Jan-15 18:04N 35°51' E 014°55'0 0.0
2017-Jan-15 17:22N 35°51' E 014°55'0 0.0
2017-Jan-15 16:04N 35°51' E 014°55'0 0.0
2017-Jan-15 15:28N 35°51' E 014°55'0 0.0
2017-Jan-15 14:13N 35°51' E 014°55'0 0.4
2017-Jan-15 13:33N 35°51' E 014°55'1110.6
2017-Jan-15 12:33N 36°00' E 014°48'1212.2
2017-Jan-15 11:33N 36°09' E 014°37'1312.8
2017-Jan-15 10:33N 36°18' E 014°26'1212.6
2017-Jan-15 09:33N 36°26' E 014°14'1212.4
2017-Jan-15 08:33N 36°33' E 014°02'1212.1
2017-Jan-15 07:33N 36°41' E 013°49'1212.1
2017-Jan-15 06:33N 36°48' E 013°38'23012.8
2017-Jan-14 12:33N 38°51' E 009°31'1312.9
2017-Jan-14 11:33N 38°58' E 009°17'1212.1
2017-Jan-14 10:33N 39°04' E 009°04'1 0.7
2017-Jan-14 09:33N 39°04' E 009°03'1 0.8
2017-Jan-14 08:33N 39°05' E 009°03'0 0.4
2017-Jan-14 07:33N 39°05' E 009°02'0 0.0
2017-Jan-14 06:30N 39°05' E 009°02'0 0.0
2017-Jan-14 05:33N 39°05' E 009°02'0 0.0
2017-Jan-14 04:33N 39°05' E 009°02'0 0.0
2017-Jan-14 03:33N 39°05' E 009°02'0 0.0
2017-Jan-13 23:33N 39°05' E 009°02'0 0.0
2017-Jan-13 22:30N 39°05' E 009°02'0 0.0
2017-Jan-13 21:33N 39°05' E 009°02'0 0.0
2017-Jan-13 20:33N 39°05' E 009°02'0 0.0
2017-Jan-13 19:33N 39°05' E 009°02'0 0.0
2017-Jan-13 18:33N 39°05' E 009°02'0 0.0
2017-Jan-13 17:33N 39°05' E 009°02'0 0.0
2017-Jan-13 16:33N 39°05' E 009°02'0 0.0
2017-Jan-13 15:33N 39°05' E 009°02'0 0.0
2017-Jan-13 14:33N 39°05' E 009°02'0 0.0
2017-Jan-13 13:33N 39°05' E 009°02'0 0.0
2017-Jan-13 12:33N 39°05' E 009°02'0 0.0
2017-Jan-13 11:33N 39°05' E 009°02'0 0.0
2017-Jan-13 10:33N 39°05' E 009°02'0 0.0
2017-Jan-13 09:33N 39°05' E 009°02'0 0.0
2017-Jan-13 08:33N 39°05' E 009°02'0 0.0
2017-Jan-13 07:33N 39°05' E 009°02'0 0.0
2017-Jan-13 06:33N 39°05' E 009°02'0 0.0
2017-Jan-13 05:33N 39°05' E 009°02'0 0.0
2017-Jan-13 04:33N 39°05' E 009°02'0 0.0
2017-Jan-13 03:33N 39°05' E 009°02'0 0.0
2017-Jan-13 02:33N 39°05' E 009°02'0 0.0
2017-Jan-13 01:33N 39°05' E 009°02'0 0.0
2017-Jan-13 00:33N 39°05' E 009°02'0 0.0
2017-Jan-12 23:33N 39°05' E 009°02'0 0.0
2017-Jan-12 22:33N 39°05' E 009°02'0 0.0
2017-Jan-12 21:33N 39°05' E 009°02'0 0.0
2017-Jan-12 20:33N 39°05' E 009°02'0 0.0
2017-Jan-12 19:33N 39°05' E 009°02'0 0.0
2017-Jan-12 18:33N 39°05' E 009°02'0 0.0
2017-Jan-12 17:33N 39°05' E 009°02'1 0.7
2017-Jan-12 16:32N 39°05' E 009°03'2 1.9
2017-Jan-12 15:32N 39°03' E 009°05'0 0.0
2017-Jan-12 14:32N 39°03' E 009°05'0 0.0
2017-Jan-12 13:32N 39°03' E 009°05'0 0.1
2017-Jan-12 12:32N 39°03' E 009°04'1 1.2
2017-Jan-12 11:33N 39°03' E 009°06'1111.0
2017-Jan-12 10:33N 38°58' E 009°18'23711.3
2017-Jan-11 13:33N 36°47' E 013°29'1111.6
2017-Jan-11 12:33N 36°39' E 013°39'1211.7
2017-Jan-11 11:33N 36°30' E 013°49'1111.1
2017-Jan-11 10:33N 36°23' E 013°60'1110.9
2017-Jan-11 09:33N 36°16' E 014°10'1010.3
2017-Jan-11 08:33N 36°09' E 014°19'8 8.2
2017-Jan-11 07:33N 36°01' E 014°23'0 0.1
2017-Jan-11 06:31N 36°01' E 014°23'0 0.0
2017-Jan-11 05:31N 36°01' E 014°23'0 0.0
2017-Jan-11 04:31N 36°01' E 014°23'0 0.0
2017-Jan-11 03:31N 36°01' E 014°23'0 0.0
2017-Jan-11 02:31N 36°02' E 014°23'0 0.0
2017-Jan-11 01:31N 36°02' E 014°23'0 0.0
2017-Jan-11 00:28N 36°02' E 014°23'0 0.0
2017-Jan-10 23:31N 36°02' E 014°23'0 0.0
2017-Jan-10 22:31N 36°02' E 014°23'0 0.0
2017-Jan-10 21:31N 36°02' E 014°23'0 0.0
2017-Jan-10 20:31N 36°02' E 014°23'0 0.0
2017-Jan-10 19:31N 36°02' E 014°23'0 0.0
2017-Jan-10 18:31N 36°02' E 014°23'1 0.9
2017-Jan-10 17:33N 36°01' E 014°24'10 9.8
2017-Jan-10 16:33N 35°56' E 014°34'10 9.8
2017-Jan-10 15:33N 35°50' E 014°44'  
Track history (hours):
 
Tides and Currents Weather Stations Pressure Air Temp Water Temp Dewpoint Dewpoint Depression Visibility Wind Speed Wind Dir Waves Ship Positions

Iblea

Last reported at 2017-Jan-20 08:25 UTC. Time now 2017-Jan-24 23:28 UTC.
Position N 35°42' E 014°50'.

Length 176 m; draft 11.1 m.

Type: Ship (hazmat cat A). MMSI: 247087700.

Date/timePositionNaut miles runAvg speedWind from/ knotsBaromVisibWave heightAir tempDewpointWater temp
2017-Jan-20 08:25N 35°42' E 014°50'1112.3
2017-Jan-20 07:33N 35°53' E 014°52'1010.2
2017-Jan-20 06:33N 36°02' E 014°46'1 0.8
2017-Jan-20 05:33N 36°02' E 014°45'0 0.4
2017-Jan-20 04:33N 36°03' E 014°46'0 0.5
2017-Jan-20 03:33N 36°02' E 014°46'0 0.4
2017-Jan-20 02:33N 36°02' E 014°47'0 0.4
2017-Jan-20 01:32N 36°02' E 014°47'0 0.3
2017-Jan-20 00:32N 36°02' E 014°48'0 0.2
2017-Jan-19 23:33N 36°02' E 014°48'0 0.2
2017-Jan-19 22:32N 36°02' E 014°48'0 0.3
2017-Jan-19 21:33N 36°02' E 014°48'0 0.4
2017-Jan-19 20:33N 36°03' E 014°49'2 1.5
2017-Jan-19 19:33N 36°03' E 014°50'2 0.7
2017-Jan-19 16:14N 36°02' E 014°53'3 4.9
2017-Jan-19 15:33N 36°00' E 014°49'1 1.3
2017-Jan-19 14:33N 35°59' E 014°49'3 3.0
2017-Jan-19 13:33N 35°57' E 014°52'6 2.4
2017-Jan-19 11:12N 35°51' E 014°53'0 0.0
2017-Jan-19 10:15N 35°51' E 014°53'0 0.0
2017-Jan-19 09:33N 35°51' E 014°53'0 0.0
2017-Jan-19 08:15N 35°51' E 014°53'0 0.0
2017-Jan-19 07:33N 35°51' E 014°53'0 0.0
2017-Jan-19 06:33N 35°51' E 014°53'0 0.0
2017-Jan-19 05:33N 35°51' E 014°53'0 0.1
2017-Jan-19 04:33N 35°51' E 014°53'0 0.0
2017-Jan-19 03:33N 35°51' E 014°53'0 0.0
2017-Jan-19 02:33N 35°51' E 014°53'0 0.0
2017-Jan-19 01:33N 35°51' E 014°53'0 0.0
2017-Jan-19 00:24N 35°51' E 014°53'0 0.0
2017-Jan-18 23:24N 35°51' E 014°53'0 0.0
2017-Jan-18 22:33N 35°51' E 014°53'0 0.0
2017-Jan-18 21:27N 35°51' E 014°53'0 0.0
2017-Jan-18 20:30N 35°51' E 014°53'0 0.0
2017-Jan-18 18:12N 35°51' E 014°53'0 0.0
2017-Jan-18 16:21N 35°51' E 014°53'0 0.0
2017-Jan-18 15:33N 35°51' E 014°53'0 0.0
2017-Jan-18 14:21N 35°51' E 014°53'0 0.1
2017-Jan-18 13:24N 35°51' E 014°53'0 0.0
2017-Jan-18 12:33N 35°51' E 014°53'0 0.0
2017-Jan-18 11:30N 35°51' E 014°53'0 0.0
2017-Jan-18 10:33N 35°51' E 014°53'0 0.0
2017-Jan-18 09:21N 35°51' E 014°53'0 0.0
2017-Jan-18 08:18N 35°51' E 014°53'0 0.0
2017-Jan-18 07:27N 35°51' E 014°53'0 0.0
2017-Jan-18 06:30N 35°51' E 014°53'0 0.0
2017-Jan-18 05:27N 35°51' E 014°53'0 0.0
2017-Jan-18 04:30N 35°51' E 014°53'0 0.0
2017-Jan-18 03:33N 35°51' E 014°53'0 0.0
2017-Jan-18 02:33N 35°51' E 014°53'0 0.0
2017-Jan-18 01:12N 35°51' E 014°53'0 0.1
2017-Jan-18 00:30N 35°51' E 014°53'0 0.1
2017-Jan-17 23:33N 35°51' E 014°53'0 0.0
2017-Jan-17 22:27N 35°51' E 014°53'0 0.0
2017-Jan-17 15:06N 35°51' E 014°53'0 0.1
2017-Jan-17 14:21N 35°51' E 014°53'0 0.1
2017-Jan-17 13:33N 35°51' E 014°53'0 0.0
2017-Jan-17 11:33N 35°51' E 014°53'0 0.0
2017-Jan-17 10:24N 35°51' E 014°53'0 0.1
2017-Jan-17 09:33N 35°51' E 014°53'0 0.0
2017-Jan-17 08:33N 35°51' E 014°53'0 0.0
2017-Jan-17 07:33N 35°51' E 014°53'0 0.0
2017-Jan-17 06:33N 35°51' E 014°53'0 0.0
2017-Jan-17 05:30N 35°51' E 014°53'0 0.0
2017-Jan-17 04:33N 35°51' E 014°53'0 0.0
2017-Jan-17 03:33N 35°51' E 014°53'0 0.1
2017-Jan-17 02:33N 35°51' E 014°53'9 9.0
2017-Jan-17 01:34N 35°55' E 014°43'7 6.7
2017-Jan-17 00:33N 35°59' E 014°36'2 1.5
2017-Jan-16 23:34N 35°58' E 014°38'4 4.4
2017-Jan-16 22:33N 36°02' E 014°39'2 2.1
2017-Jan-16 21:33N 36°04' E 014°39'2 2.4
2017-Jan-16 20:33N 36°02' E 014°39'2 2.0
2017-Jan-16 19:33N 35°60' E 014°39'2 2.0
2017-Jan-16 18:33N 35°58' E 014°38'8 8.2
2017-Jan-16 17:33N 35°54' E 014°47'7 1.5
2017-Jan-16 12:31N 35°51' E 014°55'0 0.0
2017-Jan-16 11:13N 35°51' E 014°55'0 0.0
2017-Jan-16 08:31N 35°51' E 014°55'0 0.0
2017-Jan-16 07:28N 35°51' E 014°55'0 0.0
2017-Jan-15 23:31N 35°51' E 014°55'0 0.0
2017-Jan-15 21:31N 35°51' E 014°55'0 0.0
2017-Jan-15 20:31N 35°51' E 014°55'0 0.0
2017-Jan-15 19:19N 35°51' E 014°55'0 0.0
2017-Jan-15 18:04N 35°51' E 014°55'0 0.0
2017-Jan-15 17:22N 35°51' E 014°55'0 0.0
2017-Jan-15 16:04N 35°51' E 014°55'0 0.0
2017-Jan-15 15:28N 35°51' E 014°55'0 0.0
2017-Jan-15 14:13N 35°51' E 014°55'0 0.4
2017-Jan-15 13:33N 35°51' E 014°55'1110.6
2017-Jan-15 12:33N 36°00' E 014°48'1212.2
2017-Jan-15 11:33N 36°09' E 014°37'1312.8
2017-Jan-15 10:33N 36°18' E 014°26'1212.6
2017-Jan-15 09:33N 36°26' E 014°14'1212.4
2017-Jan-15 08:33N 36°33' E 014°02'1212.1
2017-Jan-15 07:33N 36°41' E 013°49'1212.1
2017-Jan-15 06:33N 36°48' E 013°38'23012.8
2017-Jan-14 12:33N 38°51' E 009°31'1312.9
2017-Jan-14 11:33N 38°58' E 009°17'1212.1
2017-Jan-14 10:33N 39°04' E 009°04'1 0.7
2017-Jan-14 09:33N 39°04' E 009°03'1 0.8
2017-Jan-14 08:33N 39°05' E 009°03'0 0.4
2017-Jan-14 07:33N 39°05' E 009°02'0 0.0
2017-Jan-14 06:30N 39°05' E 009°02'0 0.0
2017-Jan-14 05:33N 39°05' E 009°02'0 0.0
2017-Jan-14 04:33N 39°05' E 009°02'0 0.0
2017-Jan-14 03:33N 39°05' E 009°02'0 0.0
2017-Jan-13 23:33N 39°05' E 009°02'0 0.0
2017-Jan-13 22:30N 39°05' E 009°02'0 0.0
2017-Jan-13 21:33N 39°05' E 009°02'0 0.0
2017-Jan-13 20:33N 39°05' E 009°02'0 0.0
2017-Jan-13 19:33N 39°05' E 009°02'0 0.0
2017-Jan-13 18:33N 39°05' E 009°02'0 0.0
2017-Jan-13 17:33N 39°05' E 009°02'0 0.0
2017-Jan-13 16:33N 39°05' E 009°02'0 0.0
2017-Jan-13 15:33N 39°05' E 009°02'0 0.0
2017-Jan-13 14:33N 39°05' E 009°02'0 0.0
2017-Jan-13 13:33N 39°05' E 009°02'0 0.0
2017-Jan-13 12:33N 39°05' E 009°02'0 0.0
2017-Jan-13 11:33N 39°05' E 009°02'0 0.0
2017-Jan-13 10:33N 39°05' E 009°02'0 0.0
2017-Jan-13 09:33N 39°05' E 009°02'0 0.0
2017-Jan-13 08:33N 39°05' E 009°02'0 0.0
2017-Jan-13 07:33N 39°05' E 009°02'0 0.0
2017-Jan-13 06:33N 39°05' E 009°02'0 0.0
2017-Jan-13 05:33N 39°05' E 009°02'0 0.0
2017-Jan-13 04:33N 39°05' E 009°02'0 0.0
2017-Jan-13 03:33N 39°05' E 009°02'0 0.0
2017-Jan-13 02:33N 39°05' E 009°02'0 0.0
2017-Jan-13 01:33N 39°05' E 009°02'0 0.0
2017-Jan-13 00:33N 39°05' E 009°02'0 0.0
2017-Jan-12 23:33N 39°05' E 009°02'0 0.0
2017-Jan-12 22:33N 39°05' E 009°02'0 0.0
2017-Jan-12 21:33N 39°05' E 009°02'0 0.0
2017-Jan-12 20:33N 39°05' E 009°02'0 0.0
2017-Jan-12 19:33N 39°05' E 009°02'0 0.0
2017-Jan-12 18:33N 39°05' E 009°02'0 0.0
2017-Jan-12 17:33N 39°05' E 009°02'1 0.7
2017-Jan-12 16:32N 39°05' E 009°03'2 1.9
2017-Jan-12 15:32N 39°03' E 009°05'0 0.0
2017-Jan-12 14:32N 39°03' E 009°05'0 0.0
2017-Jan-12 13:32N 39°03' E 009°05'0 0.1
2017-Jan-12 12:32N 39°03' E 009°04'1 1.2
2017-Jan-12 11:33N 39°03' E 009°06'1111.0
2017-Jan-12 10:33N 38°58' E 009°18'23711.3
2017-Jan-11 13:33N 36°47' E 013°29'1111.6
2017-Jan-11 12:33N 36°39' E 013°39'1211.7
2017-Jan-11 11:33N 36°30' E 013°49'1111.1
2017-Jan-11 10:33N 36°23' E 013°60'1110.9
2017-Jan-11 09:33N 36°16' E 014°10'1010.3
2017-Jan-11 08:33N 36°09' E 014°19'8 8.2
2017-Jan-11 07:33N 36°01' E 014°23'0 0.1
2017-Jan-11 06:31N 36°01' E 014°23'0 0.0
2017-Jan-11 05:31N 36°01' E 014°23'0 0.0
2017-Jan-11 04:31N 36°01' E 014°23'0 0.0
2017-Jan-11 03:31N 36°01' E 014°23'0 0.0
2017-Jan-11 02:31N 36°02' E 014°23'0 0.0
2017-Jan-11 01:31N 36°02' E 014°23'0 0.0
2017-Jan-11 00:28N 36°02' E 014°23'0 0.0
2017-Jan-10 23:31N 36°02' E 014°23'0 0.0
2017-Jan-10 22:31N 36°02' E 014°23'0 0.0
2017-Jan-10 21:31N 36°02' E 014°23'0 0.0
2017-Jan-10 20:31N 36°02' E 014°23'0 0.0
2017-Jan-10 19:31N 36°02' E 014°23'0 0.0
2017-Jan-10 18:31N 36°02' E 014°23'1 0.9
2017-Jan-10 17:33N 36°01' E 014°24'10 9.8
2017-Jan-10 16:33N 35°56' E 014°34'10 9.8
2017-Jan-10 15:33N 35°50' E 014°44'  

Dump ship's entire track history